Park Heights, Pennsylvania
Current Conditions -  °F | °C
As of 1:09 PM on Sunday 21 Dec 2014 (Local Time) from KTHV Reporting Station
Scattered Clouds Scattered Clouds  
Wind Chill: -1°   Ceiling: Unl
Heat Index:   Visibility: 10mi
Dew Point: -6°   Wind: 7mph
Humidity: 57%   Direction: 350°N
Pressure: 30.31"   Gusts: NA
Location:  39.7863°N, 76.988°W
Report Text: KTHV 211809Z AUTO 35006KT 10SM SCT029 02/M06 A3031 RMK AO2 T00221056
Loading
Personal Weather Stations






























Interactive Weather Map New forecast layout! Learn more

10-Day Weather Forecast

Advertisements
Track Severe Weather on mobile